Kefalonia, Greece

5:28 AM EEST on May 27, 2017 (GMT +0300)
SPARTIA | | Change Station

Elev 469 ft 38.11 °N, 20.56 °E | Updated 12 minutes ago

Clear
Clear
57.9 °F
Feels Like 57.9 °F
N
0.0
Wind Variable Wind from NNW

Today
High -- | Low -- °F
--% Chance of Precip.
Yesterday
High -- | Low -- °F
Precip. -- in
Pressure 29.89 in
Visibility 6.2 miles
Clouds Few 2000 ft
Dew Point 51 °F
Humidity 77%
Rainfall 0.00 in
Snow Depth Not available.
6:17 AM 8:50 PM
New Moon, 3% visible
METAR LGZA 270220Z 00000KT 9999 FEW020 14/12 Q1012
Pressure 29.89 in
Visibility 6.2 miles
Clouds Few 2000 ft
Dew Point 51 °F
Humidity 77%
Rainfall 0.00 in
Snow Depth Not available.
6:17 AM 8:50 PM
New Moon, 3% visible
METAR LGZA 270220Z 00000KT 9999 FEW020 14/12 Q1012

Get Severe Weather Alerts

Thanks for signing up!

Be on the lookout for a verification email in your inbox.

You'll start receiving the daily forecast at 6 AM.

×

10-Day Weather Forecast

×

Almanac

Astronomy

May. 27, 2017 Rise Set
Actual Time
Civil Twilight
Nautical Twilight
Astronomical Twilight
Moon
Length of Visible Light
Length of Day
Tomorrow will be .
, % of the Moon is Illuminated

Today's Extremes

Country Highs Country Lows

Community

WunderPhotos

Category 6

Welcome to Category 6. This is the collective home for Weather Underground's featured writeups by Dr. Jeff Masters (right), Bob Henson (left), Chris Burt, and other regular contributors.

Nearby

Air Quality

  Air Quality AQ Index Pollutant
Not available.

Snow Depth

Station Depth Elevation

Earthquake Activity

City Distance Mag. Time & Date
Minimum magnitude displayed is 2.5.

Coastal Water Temperatures

Place Temperature

Stations

Nearby Weather Stations

Station Location Temp. Windchill Dew Point Humidity Wind Precip. Elev Updated Type